sensor_id;sensor_type;location;lat;lon;timestamp;pressure;altitude;pressure_sealevel;temperature;humidity
76858;BME280;65830;0.000;0.000;2023-03-24T00:01:53;99980.41;;;8.63;72.14
76858;BME280;65830;0.000;0.000;2023-03-24T00:04:20;99977.19;;;8.71;72.28
76858;BME280;65830;0.000;0.000;2023-03-24T00:06:46;99978.00;;;8.60;72.20
76858;BME280;65830;0.000;0.000;2023-03-24T00:09:13;99974.91;;;8.66;72.50
76858;BME280;65830;0.000;0.000;2023-03-24T00:11:39;99978.00;;;8.49;72.69
76858;BME280;65830;0.000;0.000;2023-03-24T00:14:05;99980.75;;;8.47;73.11
76858;BME280;65830;0.000;0.000;2023-03-24T00:16:30;99971.63;;;8.51;72.70
76858;BME280;65830;0.000;0.000;2023-03-24T00:18:59;99978.13;;;8.47;72.77
76858;BME280;65830;0.000;0.000;2023-03-24T00:21:24;99974.38;;;8.50;73.12
76858;BME280;65830;0.000;0.000;2023-03-24T00:23:50;99964.72;;;8.38;73.44
76858;BME280;65830;0.000;0.000;2023-03-24T00:26:18;99969.78;;;8.41;73.50
76858;BME280;65830;0.000;0.000;2023-03-24T00:28:45;99967.03;;;8.42;72.95
76858;BME280;65830;0.000;0.000;2023-03-24T00:31:14;99972.44;;;8.41;72.77
76858;BME280;65830;0.000;0.000;2023-03-24T00:33:40;99968.56;;;8.33;72.89
76858;BME280;65830;0.000;0.000;2023-03-24T00:36:07;99960.69;;;8.45;73.10
76858;BME280;65830;0.000;0.000;2023-03-24T00:38:36;99964.50;;;8.41;72.88
76858;BME280;65830;0.000;0.000;2023-03-24T00:41:03;99959.00;;;8.44;72.92
76858;BME280;65830;0.000;0.000;2023-03-24T00:43:29;99955.69;;;8.29;73.01
76858;BME280;65830;0.000;0.000;2023-03-24T00:45:58;99956.31;;;8.32;73.43
76858;BME280;65830;0.000;0.000;2023-03-24T00:48:26;99959.69;;;8.34;72.71
76858;BME280;65830;0.000;0.000;2023-03-24T00:50:52;99959.41;;;8.26;73.05
76858;BME280;65830;0.000;0.000;2023-03-24T00:53:20;99954.56;;;8.20;73.00
76858;BME280;65830;0.000;0.000;2023-03-24T00:55:50;99962.66;;;8.19;73.03
76858;BME280;65830;0.000;0.000;2023-03-24T00:58:16;99950.16;;;8.21;72.99
76858;BME280;65830;0.000;0.000;2023-03-24T01:00:44;99958.16;;;8.08;73.58
76858;BME280;65830;0.000;0.000;2023-03-24T01:03:10;99955.88;;;8.03;73.75
76858;BME280;65830;0.000;0.000;2023-03-24T01:05:38;99953.56;;;7.99;73.67
76858;BME280;65830;0.000;0.000;2023-03-24T01:08:04;99947.22;;;8.12;73.44
76858;BME280;65830;0.000;0.000;2023-03-24T01:10:31;99937.38;;;8.03;73.62
76858;BME280;65830;0.000;0.000;2023-03-24T01:12:58;99944.31;;;8.04;73.49
76858;BME280;65830;0.000;0.000;2023-03-24T01:15:29;99943.16;;;8.20;72.14
76858;BME280;65830;0.000;0.000;2023-03-24T01:17:57;99934.16;;;8.11;72.84
76858;BME280;65830;0.000;0.000;2023-03-24T01:20:26;99946.59;;;7.98;72.89
76858;BME280;65830;0.000;0.000;2023-03-24T01:22:54;99939.19;;;8.03;72.71
76858;BME280;65830;0.000;0.000;2023-03-24T01:25:20;99939.91;;;8.05;72.67
76858;BME280;65830;0.000;0.000;2023-03-24T01:27:47;99943.69;;;7.89;73.54
76858;BME280;65830;0.000;0.000;2023-03-24T01:30:14;99939.47;;;7.87;73.26
76858;BME280;65830;0.000;0.000;2023-03-24T01:32:40;99933.28;;;7.99;72.92
76858;BME280;65830;0.000;0.000;2023-03-24T01:35:06;99930.25;;;7.92;72.97
76858;BME280;65830;0.000;0.000;2023-03-24T01:37:32;99918.47;;;7.96;73.05
76858;BME280;65830;0.000;0.000;2023-03-24T01:39:58;99910.31;;;8.00;72.82
76858;BME280;65830;0.000;0.000;2023-03-24T01:42:24;99914.28;;;7.94;73.03
76858;BME280;65830;0.000;0.000;2023-03-24T01:44:50;99912.09;;;7.88;73.27
76858;BME280;65830;0.000;0.000;2023-03-24T01:47:18;99908.63;;;7.87;73.34
76858;BME280;65830;0.000;0.000;2023-03-24T01:49:51;99908.38;;;7.90;73.14
76858;BME280;65830;0.000;0.000;2023-03-24T01:52:22;99904.31;;;7.98;73.03
76858;BME280;65830;0.000;0.000;2023-03-24T01:54:52;99906.25;;;7.95;73.10
76858;BME280;65830;0.000;0.000;2023-03-24T01:57:23;99910.59;;;7.72;73.76
76858;BME280;65830;0.000;0.000;2023-03-24T01:59:52;99904.53;;;7.83;73.12
76858;BME280;65830;0.000;0.000;2023-03-24T02:02:40;99906.72;;;7.89;72.59
76858;BME280;65830;0.000;0.000;2023-03-24T02:05:08;99907.31;;;7.93;72.94
76858;BME280;65830;0.000;0.000;2023-03-24T02:10:25;99917.28;;;7.89;72.67
76858;BME280;65830;0.000;0.000;2023-03-24T02:12:54;99908.16;;;7.93;72.32
76858;BME280;65830;0.000;0.000;2023-03-24T02:15:20;99919.16;;;7.76;72.99
76858;BME280;65830;0.000;0.000;2023-03-24T02:23:20;99916.59;;;7.63;73.17
76858;BME280;65830;0.000;0.000;2023-03-24T02:31:05;99926.75;;;7.56;73.21
76858;BME280;65830;0.000;0.000;2023-03-24T02:41:26;99932.56;;;7.49;72.51
76858;BME280;65830;0.000;0.000;2023-03-24T02:44:23;99932.03;;;7.56;72.07
76858;BME280;65830;0.000;0.000;2023-03-24T02:46:49;99940.22;;;7.65;71.58
76858;BME280;65830;0.000;0.000;2023-03-24T02:52:03;99949.84;;;7.42;72.18
76858;BME280;65830;0.000;0.000;2023-03-24T02:54:38;99955.97;;;7.42;71.85
76858;BME280;65830;0.000;0.000;2023-03-24T02:57:21;99943.22;;;7.36;72.34
76858;BME280;65830;0.000;0.000;2023-03-24T03:00:20;99949.25;;;7.25;72.58
76858;BME280;65830;0.000;0.000;2023-03-24T03:05:47;99958.88;;;7.13;72.73
76858;BME280;65830;0.000;0.000;2023-03-24T03:08:15;99969.03;;;7.07;72.05
76858;BME280;65830;0.000;0.000;2023-03-24T03:10:45;99964.06;;;7.15;72.23
76858;BME280;65830;0.000;0.000;2023-03-24T03:13:18;99970.19;;;7.15;72.10
76858;BME280;65830;0.000;0.000;2023-03-24T03:15:47;99990.44;;;7.15;71.77
76858;BME280;65830;0.000;0.000;2023-03-24T03:18:22;99986.97;;;7.14;71.90
76858;BME280;65830;0.000;0.000;2023-03-24T03:20:55;99991.22;;;7.04;71.90
76858;BME280;65830;0.000;0.000;2023-03-24T03:24:09;99997.13;;;6.95;71.59
76858;BME280;65830;0.000;0.000;2023-03-24T03:26:11;99990.09;;;6.83;71.78
76858;BME280;65830;0.000;0.000;2023-03-24T03:28:39;99980.38;;;6.96;71.86
76858;BME280;65830;0.000;0.000;2023-03-24T03:31:08;99980.38;;;6.70;72.84
76858;BME280;65830;0.000;0.000;2023-03-24T03:33:39;99965.44;;;6.58;73.00
76858;BME280;65830;0.000;0.000;2023-03-24T03:38:48;99939.19;;;6.93;71.28
76858;BME280;65830;0.000;0.000;2023-03-24T03:41:16;99921.13;;;6.38;73.33
76858;BME280;65830;0.000;0.000;2023-03-24T03:43:44;99921.75;;;6.41;73.51
76858;BME280;65830;0.000;0.000;2023-03-24T03:46:10;99923.31;;;6.18;74.82
76858;BME280;65830;0.000;0.000;2023-03-24T03:48:37;99917.84;;;6.08;74.68
76858;BME280;65830;0.000;0.000;2023-03-24T03:51:04;99914.69;;;6.03;75.23
76858;BME280;65830;0.000;0.000;2023-03-24T03:53:33;99915.94;;;5.97;75.34
76858;BME280;65830;0.000;0.000;2023-03-24T03:56:02;99912.59;;;6.21;75.90
76858;BME280;65830;0.000;0.000;2023-03-24T03:58:32;99910.28;;;6.29;75.11
76858;BME280;65830;0.000;0.000;2023-03-24T04:00:58;99910.59;;;6.50;74.05
76858;BME280;65830;0.000;0.000;2023-03-24T04:06:43;99912.16;;;6.53;73.50
76858;BME280;65830;0.000;0.000;2023-03-24T04:17:25;99922.38;;;6.70;73.23
76858;BME280;65830;0.000;0.000;2023-03-24T04:22:31;99926.00;;;6.93;72.50
76858;BME280;65830;0.000;0.000;2023-03-24T04:25:18;99931.59;;;7.02;71.47
76858;BME280;65830;0.000;0.000;2023-03-24T04:27:54;99925.28;;;6.91;72.12
76858;BME280;65830;0.000;0.000;2023-03-24T04:32:59;99932.09;;;7.07;71.43
76858;BME280;65830;0.000;0.000;2023-03-24T04:35:29;99935.53;;;6.96;71.77
76858;BME280;65830;0.000;0.000;2023-03-24T04:38:15;99936.31;;;7.09;71.47
76858;BME280;65830;0.000;0.000;2023-03-24T04:40:45;99937.47;;;7.05;71.15
76858;BME280;65830;0.000;0.000;2023-03-24T04:43:15;99937.94;;;7.23;70.62
76858;BME280;65830;0.000;0.000;2023-03-24T04:45:42;99938.84;;;6.74;72.47
76858;BME280;65830;0.000;0.000;2023-03-24T04:48:34;99944.34;;;6.58;73.66
76858;BME280;65830;0.000;0.000;2023-03-24T04:51:09;99944.94;;;6.74;73.16
76858;BME280;65830;0.000;0.000;2023-03-24T04:54:13;99943.72;;;7.04;72.04
76858;BME280;65830;0.000;0.000;2023-03-24T04:56:52;99942.31;;;6.62;72.88
76858;BME280;65830;0.000;0.000;2023-03-24T04:59:31;99954.00;;;6.96;72.33
76858;BME280;65830;0.000;0.000;2023-03-24T05:02:00;99961.09;;;7.20;71.86
76858;BME280;65830;0.000;0.000;2023-03-24T05:04:29;99948.56;;;7.47;70.41
76858;BME280;65830;0.000;0.000;2023-03-24T05:07:02;99961.50;;;7.74;69.63
76858;BME280;65830;0.000;0.000;2023-03-24T05:09:28;99968.66;;;7.85;69.99
76858;BME280;65830;0.000;0.000;2023-03-24T05:11:56;99959.75;;;7.86;69.62
76858;BME280;65830;0.000;0.000;2023-03-24T05:14:22;99966.13;;;7.84;69.80
76858;BME280;65830;0.000;0.000;2023-03-24T05:16:48;99964.25;;;7.73;69.45
76858;BME280;65830;0.000;0.000;2023-03-24T05:19:17;99964.66;;;7.80;70.39
76858;BME280;65830;0.000;0.000;2023-03-24T05:21:42;99966.50;;;7.90;69.46
76858;BME280;65830;0.000;0.000;2023-03-24T05:24:08;99972.03;;;7.99;69.09
76858;BME280;65830;0.000;0.000;2023-03-24T05:26:35;99966.56;;;8.02;69.14
76858;BME280;65830;0.000;0.000;2023-03-24T05:29:09;99967.22;;;7.92;69.39
76858;BME280;65830;0.000;0.000;2023-03-24T05:31:34;99970.13;;;7.89;69.34
76858;BME280;65830;0.000;0.000;2023-03-24T05:34:07;99969.44;;;8.10;68.78
76858;BME280;65830;0.000;0.000;2023-03-24T05:36:43;99964.69;;;8.15;68.07
76858;BME280;65830;0.000;0.000;2023-03-24T05:39:09;99971.31;;;7.85;68.91
76858;BME280;65830;0.000;0.000;2023-03-24T05:41:45;99981.16;;;7.94;69.07
76858;BME280;65830;0.000;0.000;2023-03-24T05:44:11;99984.38;;;8.11;68.39
76858;BME280;65830;0.000;0.000;2023-03-24T05:46:37;99985.81;;;8.15;68.26
76858;BME280;65830;0.000;0.000;2023-03-24T05:49:03;99986.88;;;8.12;68.19
76858;BME280;65830;0.000;0.000;2023-03-24T05:51:32;99998.47;;;8.23;68.45
76858;BME280;65830;0.000;0.000;2023-03-24T05:54:02;99990.19;;;8.27;68.21
76858;BME280;65830;0.000;0.000;2023-03-24T05:56:41;99991.84;;;8.64;67.63
76858;BME280;65830;0.000;0.000;2023-03-24T05:59:16;99998.38;;;8.82;65.99
76858;BME280;65830;0.000;0.000;2023-03-24T06:02:08;100003.84;;;8.68;66.87
76858;BME280;65830;0.000;0.000;2023-03-24T06:04:43;100006.41;;;8.69;66.29
76858;BME280;65830;0.000;0.000;2023-03-24T06:07:19;100000.50;;;8.66;66.48
76858;BME280;65830;0.000;0.000;2023-03-24T06:09:46;100009.41;;;8.65;66.86
76858;BME280;65830;0.000;0.000;2023-03-24T06:12:15;100010.25;;;8.77;66.45
76858;BME280;65830;0.000;0.000;2023-03-24T06:14:51;100002.06;;;8.80;66.08
76858;BME280;65830;0.000;0.000;2023-03-24T06:17:17;100002.06;;;8.80;66.38
76858;BME280;65830;0.000;0.000;2023-03-24T06:19:45;100010.72;;;8.82;66.45
76858;BME280;65830;0.000;0.000;2023-03-24T06:22:27;100004.03;;;9.00;67.13
76858;BME280;65830;0.000;0.000;2023-03-24T06:24:53;100002.56;;;9.07;66.20
76858;BME280;65830;0.000;0.000;2023-03-24T06:27:21;100006.91;;;9.08;67.11
76858;BME280;65830;0.000;0.000;2023-03-24T06:29:51;100002.56;;;9.19;66.06
76858;BME280;65830;0.000;0.000;2023-03-24T06:32:20;100001.84;;;9.28;66.07
76858;BME280;65830;0.000;0.000;2023-03-24T06:34:46;100002.78;;;9.27;65.57
76858;BME280;65830;0.000;0.000;2023-03-24T06:37:22;99998.94;;;9.31;64.92
76858;BME280;65830;0.000;0.000;2023-03-24T06:39:48;100008.09;;;9.38;64.92
76858;BME280;65830;0.000;0.000;2023-03-24T06:42:16;100002.56;;;9.30;65.31
76858;BME280;65830;0.000;0.000;2023-03-24T06:44:43;99997.72;;;9.46;65.25
76858;BME280;65830;0.000;0.000;2023-03-24T06:47:09;100009.25;;;9.45;64.79
76858;BME280;65830;0.000;0.000;2023-03-24T06:49:35;100009.47;;;9.65;63.95
76858;BME280;65830;0.000;0.000;2023-03-24T06:52:02;100010.19;;;9.67;63.98
76858;BME280;65830;0.000;0.000;2023-03-24T06:54:28;100017.59;;;9.84;63.82
76858;BME280;65830;0.000;0.000;2023-03-24T06:56:57;100015.72;;;10.07;63.04
76858;BME280;65830;0.000;0.000;2023-03-24T06:59:27;100012.03;;;10.31;62.36
76858;BME280;65830;0.000;0.000;2023-03-24T07:01:53;100011.31;;;10.50;61.42
76858;BME280;65830;0.000;0.000;2023-03-24T07:04:22;100010.72;;;10.67;60.94
76858;BME280;65830;0.000;0.000;2023-03-24T07:07:11;100016.31;;;10.43;61.56
76858;BME280;65830;0.000;0.000;2023-03-24T07:09:38;100016.50;;;10.72;60.98
76858;BME280;65830;0.000;0.000;2023-03-24T07:12:06;100022.31;;;10.66;60.73
76858;BME280;65830;0.000;0.000;2023-03-24T07:14:34;100012.66;;;10.65;61.31
76858;BME280;65830;0.000;0.000;2023-03-24T07:17:02;100019.50;;;10.89;60.56
76858;BME280;65830;0.000;0.000;2023-03-24T07:19:38;100014.13;;;11.00;60.15
76858;BME280;65830;0.000;0.000;2023-03-24T07:22:27;100019.75;;;11.17;59.82
76858;BME280;65830;0.000;0.000;2023-03-24T07:25:22;100015.28;;;11.17;59.77
76858;BME280;65830;0.000;0.000;2023-03-24T07:28:01;100009.22;;;11.36;59.05
76858;BME280;65830;0.000;0.000;2023-03-24T07:30:27;100007.97;;;11.40;59.12
76858;BME280;65830;0.000;0.000;2023-03-24T07:32:54;100012.91;;;11.64;58.60
76858;BME280;65830;0.000;0.000;2023-03-24T07:35:20;100008.41;;;11.65;58.19
76858;BME280;65830;0.000;0.000;2023-03-24T07:37:47;100013.75;;;11.75;58.40
76858;BME280;65830;0.000;0.000;2023-03-24T07:40:15;100007.50;;;11.85;57.89
76858;BME280;65830;0.000;0.000;2023-03-24T07:42:42;100009.63;;;11.91;57.50
76858;BME280;65830;0.000;0.000;2023-03-24T07:45:34;100002.75;;;12.08;57.03
76858;BME280;65830;0.000;0.000;2023-03-24T07:48:00;99999.25;;;12.08;57.36
76858;BME280;65830;0.000;0.000;2023-03-24T07:50:32;100001.78;;;12.19;57.34
76858;BME280;65830;0.000;0.000;2023-03-24T07:53:02;100001.47;;;12.42;56.92
76858;BME280;65830;0.000;0.000;2023-03-24T07:55:29;99998.50;;;12.55;56.57
76858;BME280;65830;0.000;0.000;2023-03-24T07:57:59;99992.88;;;12.67;55.56
76858;BME280;65830;0.000;0.000;2023-03-24T08:00:26;100000.16;;;12.75;55.90
76858;BME280;65830;0.000;0.000;2023-03-24T08:03:16;99988.72;;;12.55;56.19
76858;BME280;65830;0.000;0.000;2023-03-24T08:05:47;99984.19;;;12.65;56.62
76858;BME280;65830;0.000;0.000;2023-03-24T08:08:28;99987.19;;;12.90;55.65
76858;BME280;65830;0.000;0.000;2023-03-24T08:10:53;99988.72;;;13.02;55.55
76858;BME280;65830;0.000;0.000;2023-03-24T08:13:19;99980.78;;;13.20;54.89
76858;BME280;65830;0.000;0.000;2023-03-24T08:15:45;99980.03;;;13.28;55.39
76858;BME280;65830;0.000;0.000;2023-03-24T08:18:11;99985.44;;;13.46;54.87
76858;BME280;65830;0.000;0.000;2023-03-24T08:20:36;99984.16;;;13.50;55.17
76858;BME280;65830;0.000;0.000;2023-03-24T08:23:02;99985.06;;;13.59;54.70
76858;BME280;65830;0.000;0.000;2023-03-24T08:25:31;99982.47;;;13.67;54.59
76858;BME280;65830;0.000;0.000;2023-03-24T08:27:56;99973.31;;;13.69;53.95
76858;BME280;65830;0.000;0.000;2023-03-24T08:30:23;99974.19;;;13.70;54.09
76858;BME280;65830;0.000;0.000;2023-03-24T08:32:51;99967.84;;;13.71;54.33
76858;BME280;65830;0.000;0.000;2023-03-24T08:35:18;99965.09;;;13.99;54.23
76858;BME280;65830;0.000;0.000;2023-03-24T08:37:44;99958.53;;;14.11;53.22
76858;BME280;65830;0.000;0.000;2023-03-24T08:40:11;99956.75;;;13.94;53.51
76858;BME280;65830;0.000;0.000;2023-03-24T08:42:39;99956.28;;;13.98;53.55
76858;BME280;65830;0.000;0.000;2023-03-24T08:45:05;99958.25;;;13.96;53.36
76858;BME280;65830;0.000;0.000;2023-03-24T08:47:31;99959.41;;;13.94;53.00
76858;BME280;65830;0.000;0.000;2023-03-24T08:49:56;99947.56;;;14.14;52.49
76858;BME280;65830;0.000;0.000;2023-03-24T08:52:22;99948.19;;;14.08;52.49
76858;BME280;65830;0.000;0.000;2023-03-24T08:54:49;99948.91;;;14.18;52.92
76858;BME280;65830;0.000;0.000;2023-03-24T08:57:15;99945.34;;;14.27;52.39
76858;BME280;65830;0.000;0.000;2023-03-24T08:59:41;99939.94;;;14.19;52.35
76858;BME280;65830;0.000;0.000;2023-03-24T09:02:08;99939.81;;;14.29;52.51
76858;BME280;65830;0.000;0.000;2023-03-24T09:04:35;99929.38;;;14.36;52.50
76858;BME280;65830;0.000;0.000;2023-03-24T09:07:01;99936.38;;;14.37;52.35
76858;BME280;65830;0.000;0.000;2023-03-24T09:09:27;99939.38;;;14.34;52.18
76858;BME280;65830;0.000;0.000;2023-03-24T09:11:53;99930.53;;;14.15;52.45
76858;BME280;65830;0.000;0.000;2023-03-24T09:14:18;99928.53;;;14.35;52.93
76858;BME280;65830;0.000;0.000;2023-03-24T09:16:46;99930.28;;;14.53;52.03
76858;BME280;65830;0.000;0.000;2023-03-24T09:19:13;99933.25;;;14.67;52.11
76858;BME280;65830;0.000;0.000;2023-03-24T09:21:38;99933.66;;;14.55;51.39
76858;BME280;65830;0.000;0.000;2023-03-24T09:24:06;99929.31;;;14.54;51.07
76858;BME280;65830;0.000;0.000;2023-03-24T09:26:31;99921.00;;;14.83;50.49
76858;BME280;65830;0.000;0.000;2023-03-24T09:28:58;99926.88;;;14.95;50.53
76858;BME280;65830;0.000;0.000;2023-03-24T09:31:23;99921.66;;;14.85;51.11
76858;BME280;65830;0.000;0.000;2023-03-24T09:33:49;99917.00;;;14.87;50.88
76858;BME280;65830;0.000;0.000;2023-03-24T09:36:16;99914.19;;;14.88;50.35
76858;BME280;65830;0.000;0.000;2023-03-24T09:38:41;99905.66;;;14.93;50.33
76858;BME280;65830;0.000;0.000;2023-03-24T09:41:14;99907.88;;;15.06;50.17
76858;BME280;65830;0.000;0.000;2023-03-24T09:43:42;99909.72;;;15.05;49.46
76858;BME280;65830;0.000;0.000;2023-03-24T09:46:13;99899.72;;;15.16;49.65
76858;BME280;65830;0.000;0.000;2023-03-24T09:48:47;99897.78;;;15.34;48.88
76858;BME280;65830;0.000;0.000;2023-03-24T09:51:46;99902.94;;;15.27;49.13
76858;BME280;65830;0.000;0.000;2023-03-24T09:56:43;99893.28;;;15.35;49.18
76858;BME280;65830;0.000;0.000;2023-03-24T09:59:15;99885.78;;;15.46;49.05
76858;BME280;65830;0.000;0.000;2023-03-24T10:01:42;99883.75;;;15.48;48.15
76858;BME280;65830;0.000;0.000;2023-03-24T10:04:26;99875.50;;;15.09;48.71
76858;BME280;65830;0.000;0.000;2023-03-24T10:06:57;99875.69;;;15.24;48.53
76858;BME280;65830;0.000;0.000;2023-03-24T10:09:28;99868.03;;;15.45;48.10
76858;BME280;65830;0.000;0.000;2023-03-24T10:20:00;99864.38;;;15.71;48.32
76858;BME280;65830;0.000;0.000;2023-03-24T10:22:43;99855.38;;;15.72;47.94
76858;BME280;65830;0.000;0.000;2023-03-24T10:25:21;99859.72;;;15.73;48.66
76858;BME280;65830;0.000;0.000;2023-03-24T10:27:50;99851.88;;;15.80;48.57
76858;BME280;65830;0.000;0.000;2023-03-24T10:30:20;99855.88;;;15.92;48.60
76858;BME280;65830;0.000;0.000;2023-03-24T10:32:47;99851.69;;;15.98;48.46
76858;BME280;65830;0.000;0.000;2023-03-24T10:35:23;99856.03;;;16.07;48.25
76858;BME280;65830;0.000;0.000;2023-03-24T10:37:51;99852.66;;;16.21;47.86
76858;BME280;65830;0.000;0.000;2023-03-24T10:40:18;99851.81;;;16.21;47.26
76858;BME280;65830;0.000;0.000;2023-03-24T10:42:45;99840.41;;;16.27;47.08
76858;BME280;65830;0.000;0.000;2023-03-24T10:45:13;99844.59;;;16.38;46.77
76858;BME280;65830;0.000;0.000;2023-03-24T10:47:43;99836.19;;;16.41;45.82
76858;BME280;65830;0.000;0.000;2023-03-24T10:50:09;99828.34;;;16.31;45.38
76858;BME280;65830;0.000;0.000;2023-03-24T10:52:41;99822.53;;;16.27;45.39
76858;BME280;65830;0.000;0.000;2023-03-24T10:55:15;99827.66;;;16.45;45.13
76858;BME280;65830;0.000;0.000;2023-03-24T10:57:47;99820.53;;;16.69;45.80
76858;BME280;65830;0.000;0.000;2023-03-24T11:00:19;99824.31;;;16.91;44.90
76858;BME280;65830;0.000;0.000;2023-03-24T11:02:58;99815.56;;;16.97;44.46
76858;BME280;65830;0.000;0.000;2023-03-24T11:05:26;99806.38;;;16.92;44.74
76858;BME280;65830;0.000;0.000;2023-03-24T11:07:55;99805.03;;;17.19;44.11
76858;BME280;65830;0.000;0.000;2023-03-24T11:10:24;99800.31;;;17.44;43.41
76858;BME280;65830;0.000;0.000;2023-03-24T11:15:19;99786.53;;;17.70;43.49
76858;BME280;65830;0.000;0.000;2023-03-24T11:17:46;99785.72;;;17.84;43.45
76858;BME280;65830;0.000;0.000;2023-03-24T11:20:14;99786.72;;;17.83;43.58
76858;BME280;65830;0.000;0.000;2023-03-24T11:22:40;99774.91;;;18.08;43.17
76858;BME280;65830;0.000;0.000;2023-03-24T11:25:07;99772.03;;;18.39;42.54
76858;BME280;65830;0.000;0.000;2023-03-24T11:27:43;99769.50;;;18.52;42.46
76858;BME280;65830;0.000;0.000;2023-03-24T11:30:11;99754.41;;;18.51;41.45
76858;BME280;65830;0.000;0.000;2023-03-24T11:32:37;99758.84;;;18.59;41.10
76858;BME280;65830;0.000;0.000;2023-03-24T11:35:06;99751.63;;;18.96;41.56
76858;BME280;65830;0.000;0.000;2023-03-24T11:37:35;99747.91;;;19.18;39.94
76858;BME280;65830;0.000;0.000;2023-03-24T11:43:03;99732.56;;;19.40;39.50
76858;BME280;65830;0.000;0.000;2023-03-24T11:45:40;99744.44;;;19.24;39.34
76858;BME280;65830;0.000;0.000;2023-03-24T11:48:28;99733.47;;;19.48;38.91
76858;BME280;65830;0.000;0.000;2023-03-24T11:50:56;99727.88;;;19.42;39.38
76858;BME280;65830;0.000;0.000;2023-03-24T11:53:24;99725.75;;;19.66;38.32
76858;BME280;65830;0.000;0.000;2023-03-24T11:56:09;99716.19;;;20.27;37.83
76858;BME280;65830;0.000;0.000;2023-03-24T12:01:11;99708.69;;;20.77;36.33
76858;BME280;65830;0.000;0.000;2023-03-24T12:08:51;99694.63;;;21.28;36.09
76858;BME280;65830;0.000;0.000;2023-03-24T12:13:49;99693.59;;;21.02;36.18
76858;BME280;65830;0.000;0.000;2023-03-24T12:19:07;99675.75;;;21.28;34.66
76858;BME280;65830;0.000;0.000;2023-03-24T12:27:01;99666.78;;;23.03;32.17
76858;BME280;65830;0.000;0.000;2023-03-24T12:42:22;99649.63;;;25.17;29.24
76858;BME280;65830;0.000;0.000;2023-03-24T12:47:17;99644.88;;;26.65;27.66
76858;BME280;65830;0.000;0.000;2023-03-24T12:49:54;99645.34;;;26.90;27.31
76858;BME280;65830;0.000;0.000;2023-03-24T12:52:46;99628.09;;;27.97;26.45
76858;BME280;65830;0.000;0.000;2023-03-24T12:55:17;99625.88;;;29.77;23.47
76858;BME280;65830;0.000;0.000;2023-03-24T13:00:40;99628.22;;;31.75;20.06
76858;BME280;65830;0.000;0.000;2023-03-24T13:03:10;99623.72;;;28.72;23.66
76858;BME280;65830;0.000;0.000;2023-03-24T13:05:39;99626.28;;;30.12;21.95
76858;BME280;65830;0.000;0.000;2023-03-24T13:08:12;99616.25;;;31.20;21.09
76858;BME280;65830;0.000;0.000;2023-03-24T13:10:40;99626.00;;;31.88;20.46
76858;BME280;65830;0.000;0.000;2023-03-24T13:16:19;99615.97;;;31.52;19.95
76858;BME280;65830;0.000;0.000;2023-03-24T13:18:26;99611.94;;;31.99;19.08
76858;BME280;65830;0.000;0.000;2023-03-24T13:20:55;99607.16;;;31.55;19.69
76858;BME280;65830;0.000;0.000;2023-03-24T13:28:47;99598.56;;;33.06;18.54
76858;BME280;65830;0.000;0.000;2023-03-24T13:31:14;99594.84;;;32.62;17.79
76858;BME280;65830;0.000;0.000;2023-03-24T13:33:41;99593.16;;;32.27;19.02
76858;BME280;65830;0.000;0.000;2023-03-24T13:36:53;99593.16;;;33.30;17.74
76858;BME280;65830;0.000;0.000;2023-03-24T13:38:55;99584.31;;;33.81;17.47
76858;BME280;65830;0.000;0.000;2023-03-24T13:41:22;99577.47;;;33.79;17.40
76858;BME280;65830;0.000;0.000;2023-03-24T13:44:00;99576.88;;;32.75;18.90
76858;BME280;65830;0.000;0.000;2023-03-24T13:46:27;99570.72;;;33.90;17.87
76858;BME280;65830;0.000;0.000;2023-03-24T13:48:57;99563.16;;;32.36;19.80
76858;BME280;65830;0.000;0.000;2023-03-24T13:56:36;99555.09;;;32.84;20.41
76858;BME280;65830;0.000;0.000;2023-03-24T14:06:48;99556.78;;;32.06;21.41
76858;BME280;65830;0.000;0.000;2023-03-24T14:09:23;99551.38;;;32.99;18.85
76858;BME280;65830;0.000;0.000;2023-03-24T14:14:28;99550.31;;;32.65;19.07
76858;BME280;65830;0.000;0.000;2023-03-24T14:17:12;99545.72;;;32.51;19.24
76858;BME280;65830;0.000;0.000;2023-03-24T14:19:42;99545.72;;;31.61;20.43
76858;BME280;65830;0.000;0.000;2023-03-24T14:22:09;99542.78;;;32.02;20.04
76858;BME280;65830;0.000;0.000;2023-03-24T14:24:36;99534.03;;;31.25;20.17
76858;BME280;65830;0.000;0.000;2023-03-24T14:29:48;99529.13;;;30.04;22.14
76858;BME280;65830;0.000;0.000;2023-03-24T14:32:18;99523.38;;;30.05;21.25
76858;BME280;65830;0.000;0.000;2023-03-24T14:34:56;99525.63;;;30.39;20.57
76858;BME280;65830;0.000;0.000;2023-03-24T14:37:23;99531.63;;;30.72;21.94
76858;BME280;65830;0.000;0.000;2023-03-24T14:39:48;99515.72;;;30.07;20.36
76858;BME280;65830;0.000;0.000;2023-03-24T14:42:25;99526.31;;;29.78;20.44
76858;BME280;65830;0.000;0.000;2023-03-24T14:44:53;99518.72;;;29.96;20.29
76858;BME280;65830;0.000;0.000;2023-03-24T14:47:26;99516.78;;;29.96;20.93
76858;BME280;65830;0.000;0.000;2023-03-24T14:49:54;99499.75;;;29.63;20.64
76858;BME280;65830;0.000;0.000;2023-03-24T14:54:58;99511.34;;;31.14;19.05
76858;BME280;65830;0.000;0.000;2023-03-24T14:57:25;99503.59;;;34.90;16.44
76858;BME280;65830;0.000;0.000;2023-03-24T15:05:21;99501.97;;;35.72;14.74
76858;BME280;65830;0.000;0.000;2023-03-24T15:10:35;99496.31;;;35.27;14.31
76858;BME280;65830;0.000;0.000;2023-03-24T15:13:02;99496.09;;;35.23;14.27
76858;BME280;65830;0.000;0.000;2023-03-24T15:15:28;99493.03;;;34.12;15.46
76858;BME280;65830;0.000;0.000;2023-03-24T15:17:53;99492.47;;;33.53;15.78
76858;BME280;65830;0.000;0.000;2023-03-24T15:22:44;99495.75;;;30.12;20.07
76858;BME280;65830;0.000;0.000;2023-03-24T15:25:10;99492.44;;;28.41;20.63
76858;BME280;65830;0.000;0.000;2023-03-24T15:27:36;99492.25;;;27.05;22.05
76858;BME280;65830;0.000;0.000;2023-03-24T15:30:12;99486.94;;;26.26;23.32
76858;BME280;65830;0.000;0.000;2023-03-24T15:32:37;99486.88;;;25.63;25.24
76858;BME280;65830;0.000;0.000;2023-03-24T15:35:05;99481.94;;;24.72;25.76
76858;BME280;65830;0.000;0.000;2023-03-24T15:37:32;99479.50;;;23.87;26.56
76858;BME280;65830;0.000;0.000;2023-03-24T15:40:00;99486.91;;;23.43;27.50
76858;BME280;65830;0.000;0.000;2023-03-24T15:42:26;99487.16;;;23.04;27.86
76858;BME280;65830;0.000;0.000;2023-03-24T15:44:52;99489.06;;;23.04;28.60
76858;BME280;65830;0.000;0.000;2023-03-24T15:47:22;99479.53;;;22.94;28.89
76858;BME280;65830;0.000;0.000;2023-03-24T15:54:41;99483.28;;;21.86;29.99